Time;durP1;ratioP1;P1;durP2;ratioP2;P2;SDS_P1;SDS_P2;PMS_P1;PMS_P2;Temp;Humidity;BMP_temperature;BMP_pressure;BME280_temperature;BME280_humidity;BME280_pressure;Samples;Min_cycle;Max_cycle;Signal;HPM_P1;HPM_P2
2022/05/26 00:02:05;;;;;;;2.10;0.60;;;;;;;;;;4990908;28;20928;-72
2022/05/26 00:04:31;;;;;;;2.40;0.60;;;;;;;;;;4990624;28;20536;-72
2022/05/26 00:06:58;;;;;;;0.90;0.90;;;;;;;;;;4989195;28;20516;-72
2022/05/26 00:09:24;;;;;;;0.57;0.57;;;;;;;;;;4991090;28;20942;-72
2022/05/26 00:11:50;;;;;;;0.60;0.60;;;;;;;;;;4990696;28;20460;-72
2022/05/26 00:14:16;;;;;;;0.50;0.50;;;;;;;;;;4992349;28;20500;-72
2022/05/26 00:16:43;;;;;;;0.80;0.80;;;;;;;;;;4992206;28;20448;-72
2022/05/26 00:19:10;;;;;;;3.40;0.50;;;;;;;;;;4991089;28;20528;-72
2022/05/26 00:21:36;;;;;;;0.80;0.80;;;;;;;;;;4988772;28;20812;-72
2022/05/26 00:24:03;;;;;;;0.57;0.57;;;;;;;;;;4991648;28;20622;-72
2022/05/26 00:26:29;;;;;;;2.57;0.70;;;;;;;;;;4991259;28;20952;-72
2022/05/26 00:28:55;;;;;;;0.80;0.70;;;;;;;;;;4992049;28;20828;-72
2022/05/26 00:31:21;;;;;;;0.50;0.50;;;;;;;;;;4989927;28;20458;-72
2022/05/26 00:33:47;;;;;;;4.13;0.77;;;;;;;;;;4988844;28;20460;-72
2022/05/26 00:36:14;;;;;;;0.63;0.63;;;;;;;;;;4991570;28;20953;-72
2022/05/26 00:38:41;;;;;;;7.43;0.60;;;;;;;;;;4992139;28;20830;-72
2022/05/26 00:41:09;;;;;;;1.80;0.50;;;;;;;;;;4989868;28;21724;-72
2022/05/26 00:43:36;;;;;;;2.73;0.80;;;;;;;;;;4988818;28;21090;-72
2022/05/26 00:46:13;;;;;;;1.33;1.20;;;;;;;;;;4990084;28;21008;-72
2022/05/26 00:48:47;;;;;;;3.50;0.70;;;;;;;;;;4991610;28;20464;-72
2022/05/26 00:51:15;;;;;;;0.80;0.80;;;;;;;;;;4990566;28;20515;-72
2022/05/26 00:53:44;;;;;;;1.80;0.80;;;;;;;;;;4990145;28;20428;-72
2022/05/26 00:56:23;;;;;;;0.77;0.60;;;;;;;;;;4990338;28;20464;-72
2022/05/26 00:58:52;;;;;;;0.50;0.50;;;;;;;;;;4991220;28;20444;-72
2022/05/26 01:01:18;;;;;;;1.40;0.50;;;;;;;;;;4990549;28;20456;-72
2022/05/26 01:03:54;;;;;;;0.73;0.73;;;;;;;;;;4987331;28;20488;-72
2022/05/26 01:06:23;;;;;;;5.87;1.10;;;;;;;;;;4989884;28;20856;-72
2022/05/26 01:08:57;;;;;;;0.77;0.70;;;;;;;;;;4989775;28;21142;-72
2022/05/26 01:11:24;;;;;;;0.70;0.70;;;;;;;;;;4986098;28;20440;-72
2022/05/26 01:13:52;;;;;;;1.37;0.53;;;;;;;;;;4987710;28;20515;-72
2022/05/26 01:16:26;;;;;;;1.60;0.60;;;;;;;;;;4990600;28;20445;-72
2022/05/26 01:18:55;;;;;;;0.63;0.60;;;;;;;;;;4989869;28;20978;-72
2022/05/26 01:21:32;;;;;;;1.67;0.70;;;;;;;;;;4987616;28;20487;-72
2022/05/26 01:24:07;;;;;;;4.33;0.60;;;;;;;;;;4989890;28;20496;-72
2022/05/26 01:26:40;;;;;;;7.23;0.90;;;;;;;;;;4991147;28;20524;-72
2022/05/26 01:29:39;;;;;;;0.90;0.90;;;;;;;;;;4990348;28;20449;-73
2022/05/26 01:32:14;;;;;;;2.10;0.60;;;;;;;;;;4989500;28;20468;-72
2022/05/26 01:35:09;;;;;;;0.97;0.70;;;;;;;;;;4989812;28;20933;-72
2022/05/26 01:37:54;;;;;;;1.93;1.10;;;;;;;;;;4985317;28;20549;-73
2022/05/26 01:40:32;;;;;;;2.73;0.70;;;;;;;;;;4989803;28;20444;-72
2022/05/26 01:43:07;;;;;;;0.97;0.87;;;;;;;;;;4986695;28;20472;-72
2022/05/26 01:45:43;;;;;;;1.50;0.70;;;;;;;;;;4988542;28;20452;-72
2022/05/26 01:48:15;;;;;;;1.90;1.10;;;;;;;;;;4989500;28;20439;-72
2022/05/26 01:50:47;;;;;;;0.50;0.50;;;;;;;;;;4989798;28;20502;-72
2022/05/26 01:53:28;;;;;;;0.90;0.90;;;;;;;;;;4989083;28;20523;-72
2022/05/26 01:56:12;;;;;;;1.90;0.60;;;;;;;;;;4990097;28;20528;-72
2022/05/26 01:58:41;;;;;;;0.63;0.63;;;;;;;;;;4990022;28;20433;-72
2022/05/26 02:01:08;;;;;;;4.43;0.67;;;;;;;;;;4988563;28;20467;-72
2022/05/26 02:03:37;;;;;;;0.70;0.70;;;;;;;;;;4988182;28;20565;-72
2022/05/26 02:06:11;;;;;;;0.93;0.83;;;;;;;;;;4988281;28;20437;-72
2022/05/26 02:08:39;;;;;;;0.87;0.87;;;;;;;;;;4988062;28;20437;-72
2022/05/26 02:11:10;;;;;;;0.80;0.80;;;;;;;;;;4988862;28;20525;-73
2022/05/26 02:13:38;;;;;;;1.07;0.87;;;;;;;;;;4988656;28;20465;-72
2022/05/26 02:16:08;;;;;;;2.40;0.70;;;;;;;;;;4988748;28;20503;-72
2022/05/26 02:18:37;;;;;;;3.40;1.50;;;;;;;;;;5001927;28;20942;-72
2022/05/26 02:21:09;;;;;;;1.23;0.80;;;;;;;;;;4987738;28;20512;-72
2022/05/26 02:23:37;;;;;;;0.70;0.70;;;;;;;;;;4990078;28;20496;-72
2022/05/26 02:26:04;;;;;;;2.83;1.03;;;;;;;;;;4988928;28;20444;-72
2022/05/26 02:31:19;;;;;;;0.47;0.47;;;;;;;;;;4988021;28;20785;-72
2022/05/26 02:33:45;;;;;;;2.67;1.10;;;;;;;;;;4986187;28;20444;-72
2022/05/26 02:36:11;;;;;;;1.50;0.60;;;;;;;;;;4993242;28;20440;-72
2022/05/26 02:38:37;;;;;;;2.50;0.90;;;;;;;;;;4993440;28;20440;-72
2022/05/26 02:41:03;;;;;;;1.53;0.83;;;;;;;;;;4988969;28;20925;-72
2022/05/26 02:43:30;;;;;;;3.63;1.00;;;;;;;;;;4992765;28;20831;-72
2022/05/26 02:46:14;;;;;;;4.27;0.97;;;;;;;;;;4993560;28;20428;-72
2022/05/26 02:48:46;;;;;;;2.63;1.00;;;;;;;;;;4989562;28;20472;-72
2022/05/26 02:51:21;;;;;;;1.23;1.13;;;;;;;;;;4992980;28;20472;-72
2022/05/26 02:54:07;;;;;;;1.07;0.97;;;;;;;;;;4993048;28;20843;-72
2022/05/26 02:56:46;;;;;;;1.87;0.83;;;;;;;;;;4989526;28;20929;-72
2022/05/26 02:59:12;;;;;;;2.80;0.83;;;;;;;;;;4989793;28;20449;-72
2022/05/26 03:01:44;;;;;;;1.37;1.00;;;;;;;;;;4990912;28;20490;-72
2022/05/26 03:04:23;;;;;;;2.30;0.93;;;;;;;;;;4992978;28;20476;-72
2022/05/26 03:06:51;;;;;;;1.30;1.00;;;;;;;;;;4993382;28;20424;-72
2022/05/26 03:09:17;;;;;;;0.50;0.50;;;;;;;;;;4990125;28;20797;-72
2022/05/26 03:11:46;;;;;;;0.77;0.77;;;;;;;;;;4992453;28;20421;-72
2022/05/26 03:14:12;;;;;;;0.93;0.90;;;;;;;;;;4991683;28;20467;-72
2022/05/26 03:16:38;;;;;;;0.80;0.50;;;;;;;;;;4993495;28;20445;-72
2022/05/26 03:19:05;;;;;;;0.60;0.60;;;;;;;;;;4992715;28;20515;-72
2022/05/26 03:21:31;;;;;;;2.20;1.07;;;;;;;;;;4992824;28;20475;-72
2022/05/26 03:23:57;;;;;;;1.47;0.90;;;;;;;;;;4990231;28;20484;-72
2022/05/26 03:26:23;;;;;;;1.10;0.70;;;;;;;;;;4993290;28;20431;-72
2022/05/26 03:28:49;;;;;;;0.60;0.60;;;;;;;;;;4990683;28;20437;-72
2022/05/26 03:31:15;;;;;;;0.73;0.70;;;;;;;;;;4992327;28;20462;-72
2022/05/26 03:41:55;;;;;;;1.67;1.00;;;;;;;;;;4992172;28;20468;-72
2022/05/26 03:44:21;;;;;;;0.83;0.60;;;;;;;;;;4991915;28;20480;-72
2022/05/26 03:46:49;;;;;;;1.67;1.17;;;;;;;;;;4992726;28;20428;-72
2022/05/26 03:49:15;;;;;;;1.20;1.10;;;;;;;;;;4991119;28;20441;-72
2022/05/26 03:51:41;;;;;;;1.40;0.97;;;;;;;;;;4991618;28;20564;-73
2022/05/26 03:54:07;;;;;;;0.90;0.70;;;;;;;;;;4992433;28;20540;-72
2022/05/26 03:56:34;;;;;;;2.30;0.90;;;;;;;;;;4989933;28;20955;-72
2022/05/26 03:59:00;;;;;;;4.80;0.83;;;;;;;;;;4987555;28;20536;-72
2022/05/26 04:01:27;;;;;;;0.70;0.70;;;;;;;;;;4990684;28;20468;-72
2022/05/26 04:03:55;;;;;;;1.23;1.23;;;;;;;;;;4991543;28;20488;-72
2022/05/26 04:06:21;;;;;;;0.80;0.80;;;;;;;;;;4987631;28;20429;-72
2022/05/26 04:08:47;;;;;;;2.77;0.67;;;;;;;;;;4991221;28;20437;-72
2022/05/26 04:11:13;;;;;;;0.60;0.60;;;;;;;;;;4991821;28;20433;-72
2022/05/26 04:13:39;;;;;;;0.70;0.70;;;;;;;;;;4991388;28;20917;-72
2022/05/26 04:16:06;;;;;;;1.50;0.80;;;;;;;;;;4991721;28;20471;-72
2022/05/26 04:18:32;;;;;;;2.10;0.77;;;;;;;;;;4990803;28;20440;-72
2022/05/26 04:21:08;;;;;;;1.80;0.80;;;;;;;;;;4988910;28;20432;-72
2022/05/26 04:23:34;;;;;;;3.00;0.83;;;;;;;;;;4990993;28;20516;-72
2022/05/26 04:26:00;;;;;;;1.70;0.77;;;;;;;;;;4991614;28;20453;-72
2022/05/26 04:28:26;;;;;;;0.77;0.77;;;;;;;;;;4991267;28;20809;-72
2022/05/26 04:30:52;;;;;;;1.20;1.10;;;;;;;;;;4991059;28;20441;-72
2022/05/26 04:33:18;;;;;;;5.13;1.40;;;;;;;;;;4990991;28;20466;-72
2022/05/26 04:35:44;;;;;;;0.90;0.90;;;;;;;;;;4989985;28;20425;-72
2022/05/26 04:38:11;;;;;;;8.27;0.90;;;;;;;;;;4990963;28;20448;-72
2022/05/26 04:40:37;;;;;;;6.57;0.90;;;;;;;;;;4991698;28;20763;-72
2022/05/26 04:43:03;;;;;;;0.83;0.83;;;;;;;;;;4988070;28;20497;-72
2022/05/26 04:45:30;;;;;;;1.00;1.00;;;;;;;;;;4991620;28;20436;-72
2022/05/26 04:47:56;;;;;;;2.10;0.87;;;;;;;;;;4990410;28;20487;-72
2022/05/26 04:50:23;;;;;;;0.90;0.70;;;;;;;;;;4990361;28;20843;-72
2022/05/26 04:52:49;;;;;;;5.50;0.83;;;;;;;;;;4990155;28;20524;-72
2022/05/26 04:55:15;;;;;;;1.67;1.00;;;;;;;;;;4991615;28;20437;-72
2022/05/26 04:57:41;;;;;;;1.30;1.27;;;;;;;;;;4990623;28;20467;-72
2022/05/26 05:00:10;;;;;;;1.20;1.20;;;;;;;;;;4989641;28;20440;-72
2022/05/26 05:02:37;;;;;;;1.50;1.20;;;;;;;;;;4989340;28;20565;-72
2022/05/26 05:05:04;;;;;;;6.83;0.80;;;;;;;;;;4990161;28;20457;-72
2022/05/26 05:07:30;;;;;;;1.37;0.83;;;;;;;;;;4990351;28;20922;-72
2022/05/26 05:09:56;;;;;;;0.80;0.80;;;;;;;;;;4988628;28;20866;-72
2022/05/26 05:12:23;;;;;;;0.70;0.70;;;;;;;;;;4991375;28;20417;-72
2022/05/26 05:14:50;;;;;;;1.43;0.70;;;;;;;;;;4989818;28;20463;-72
2022/05/26 05:17:17;;;;;;;0.70;0.67;;;;;;;;;;4989870;28;20441;-72
2022/05/26 05:19:43;;;;;;;3.60;0.87;;;;;;;;;;4989976;28;20518;-72
2022/05/26 05:22:14;;;;;;;1.80;0.90;;;;;;;;;;4990053;28;20445;-72
2022/05/26 05:24:40;;;;;;;1.30;1.10;;;;;;;;;;4988911;28;20448;-72
2022/05/26 05:27:14;;;;;;;0.80;0.80;;;;;;;;;;4989193;28;20794;-72
2022/05/26 05:29:41;;;;;;;2.83;0.90;;;;;;;;;;4988198;28;20189;-72
2022/05/26 05:32:16;;;;;;;0.77;0.77;;;;;;;;;;4990660;28;20515;-72
2022/05/26 05:34:44;;;;;;;1.13;1.03;;;;;;;;;;4987319;28;20445;-72
2022/05/26 05:37:10;;;;;;;0.73;0.50;;;;;;;;;;4985851;28;20512;-72
2022/05/26 05:39:37;;;;;;;1.33;0.80;;;;;;;;;;4989165;28;20444;-72
2022/05/26 05:42:04;;;;;;;2.20;1.20;;;;;;;;;;4989958;28;20451;-72
2022/05/26 05:44:30;;;;;;;1.43;1.30;;;;;;;;;;4984832;28;20516;-72
2022/05/26 05:46:59;;;;;;;1.40;1.30;;;;;;;;;;4986877;28;20445;-72
2022/05/26 05:49:30;;;;;;;2.07;0.90;;;;;;;;;;4988182;28;20448;-72
2022/05/26 05:51:57;;;;;;;1.13;0.90;;;;;;;;;;4986839;28;20445;-72
2022/05/26 05:54:23;;;;;;;10.23;1.10;;;;;;;;;;4987251;28;20910;-72
2022/05/26 05:56:49;;;;;;;1.70;1.47;;;;;;;;;;4980473;28;20484;-72
2022/05/26 05:59:16;;;;;;;1.87;1.00;;;;;;;;;;4981915;28;20448;-72
2022/05/26 06:01:42;;;;;;;0.87;0.87;;;;;;;;;;4987653;28;20535;-72
2022/05/26 06:04:08;;;;;;;3.10;1.10;;;;;;;;;;4987831;28;20572;-72
2022/05/26 06:06:35;;;;;;;2.10;0.90;;;;;;;;;;4988420;28;20421;-72
2022/05/26 06:09:01;;;;;;;0.90;0.90;;;;;;;;;;4987951;28;20446;-72
2022/05/26 06:11:27;;;;;;;1.27;0.77;;;;;;;;;;4987524;28;20459;-72
2022/05/26 06:13:54;;;;;;;1.90;0.93;;;;;;;;;;4988543;28;20454;-72
2022/05/26 06:16:20;;;;;;;0.80;0.80;;;;;;;;;;4988569;28;20841;-72
2022/05/26 06:18:48;;;;;;;1.50;0.77;;;;;;;;;;4987560;28;20527;-72
2022/05/26 06:21:14;;;;;;;1.60;1.00;;;;;;;;;;4987288;28;20480;-72
2022/05/26 06:23:40;;;;;;;1.73;1.10;;;;;;;;;;4986790;28;20484;-72
2022/05/26 06:26:06;;;;;;;1.57;0.73;;;;;;;;;;4987427;28;20436;-73
2022/05/26 06:31:20;;;;;;;1.03;1.03;;;;;;;;;;4988447;28;20420;-72
2022/05/26 06:39:15;;;;;;;0.83;0.83;;;;;;;;;;4986384;28;20460;-72
2022/05/26 06:44:25;;;;;;;0.77;0.77;;;;;;;;;;4989129;28;20496;-72
2022/05/26 06:46:51;;;;;;;1.17;0.70;;;;;;;;;;4989603;28;20908;-72
2022/05/26 06:49:17;;;;;;;0.70;0.60;;;;;;;;;;4987260;28;20961;-72
2022/05/26 06:51:44;;;;;;;0.80;0.80;;;;;;;;;;4986602;28;20469;-72
2022/05/26 06:54:11;;;;;;;1.00;0.90;;;;;;;;;;4987556;28;20444;-71
2022/05/26 06:56:37;;;;;;;0.83;0.80;;;;;;;;;;4980463;28;21018;-72
2022/05/26 06:59:03;;;;;;;1.47;0.70;;;;;;;;;;4975324;28;20472;-72
2022/05/26 07:01:29;;;;;;;0.83;0.83;;;;;;;;;;4980531;28;20440;-72
2022/05/26 07:03:55;;;;;;;1.97;1.20;;;;;;;;;;4983546;28;20492;-72
2022/05/26 07:06:23;;;;;;;0.80;0.70;;;;;;;;;;4988003;28;20771;-73
2022/05/26 07:08:49;;;;;;;0.63;0.63;;;;;;;;;;4984973;28;20988;-72
2022/05/26 07:11:15;;;;;;;0.70;0.70;;;;;;;;;;4986778;28;20443;-72
2022/05/26 07:13:41;;;;;;;4.10;1.00;;;;;;;;;;4987310;28;20441;-72
2022/05/26 07:16:10;;;;;;;0.60;0.60;;;;;;;;;;4988616;28;20949;-72
2022/05/26 07:18:36;;;;;;;1.47;1.03;;;;;;;;;;4987551;28;20445;-72
2022/05/26 07:21:03;;;;;;;5.27;0.63;;;;;;;;;;4987962;28;20437;-71
2022/05/26 07:23:32;;;;;;;4.00;0.70;;;;;;;;;;4990167;28;20480;-72
2022/05/26 07:25:58;;;;;;;0.80;0.53;;;;;;;;;;4987730;28;20430;-72
2022/05/26 07:28:24;;;;;;;0.40;0.40;;;;;;;;;;4988731;28;20433;-71
2022/05/26 07:30:52;;;;;;;0.40;0.40;;;;;;;;;;4990064;28;20527;-71
2022/05/26 07:33:18;;;;;;;0.40;0.40;;;;;;;;;;4990106;28;20517;-72
2022/05/26 07:35:44;;;;;;;0.60;0.60;;;;;;;;;;4986301;28;20938;-71
2022/05/26 07:43:40;;;;;;;1.80;0.50;;;;;;;;;;4990192;28;20891;-72
2022/05/26 07:46:07;;;;;;;0.90;0.50;;;;;;;;;;4991821;28;20444;-72
2022/05/26 07:48:33;;;;;;;1.80;0.50;;;;;;;;;;4991678;28;20449;-72
2022/05/26 07:50:59;;;;;;;0.50;0.50;;;;;;;;;;4989440;28;20563;-72
2022/05/26 07:53:25;;;;;;;0.70;0.50;;;;;;;;;;4990384;28;20443;-72
2022/05/26 07:55:51;;;;;;;0.50;0.40;;;;;;;;;;4989565;28;20433;-72
2022/05/26 07:58:17;;;;;;;0.57;0.57;;;;;;;;;;4985993;28;20440;-71
2022/05/26 08:00:42;;;;;;;0.40;0.40;;;;;;;;;;4985526;28;20433;-72
2022/05/26 08:03:09;;;;;;;1.03;0.50;;;;;;;;;;4990863;28;20508;-71
2022/05/26 08:05:35;;;;;;;1.13;0.40;;;;;;;;;;4987637;28;20429;-72
2022/05/26 08:08:01;;;;;;;0.47;0.47;;;;;;;;;;4989640;28;20476;-72
2022/05/26 08:10:27;;;;;;;9.83;0.40;;;;;;;;;;4990568;28;20441;-71
2022/05/26 08:12:53;;;;;;;0.60;0.60;;;;;;;;;;4991768;28;20510;-72
2022/05/26 08:15:19;;;;;;;8.50;0.50;;;;;;;;;;4989532;28;20437;-72
2022/05/26 08:17:45;;;;;;;0.60;0.60;;;;;;;;;;4992500;28;20565;-72
2022/05/26 08:20:11;;;;;;;3.90;0.50;;;;;;;;;;4990601;28;20472;-72
2022/05/26 08:22:37;;;;;;;3.80;0.97;;;;;;;;;;4989872;28;20501;-72
2022/05/26 08:25:04;;;;;;;0.60;0.60;;;;;;;;;;4988364;28;20484;-72
2022/05/26 08:27:30;;;;;;;0.60;0.60;;;;;;;;;;4989729;28;20446;-72
2022/05/26 08:29:59;;;;;;;2.33;0.70;;;;;;;;;;4990930;28;20440;-72
2022/05/26 08:32:25;;;;;;;0.67;0.50;;;;;;;;;;4985470;28;20428;-71
2022/05/26 08:34:57;;;;;;;0.60;0.60;;;;;;;;;;4985840;28;20450;-72
2022/05/26 08:37:23;;;;;;;2.40;0.40;;;;;;;;;;4985806;28;20437;-72
2022/05/26 08:39:49;;;;;;;0.57;0.50;;;;;;;;;;4989507;28;20441;-72
2022/05/26 08:42:27;;;;;;;0.40;0.40;;;;;;;;;;4991265;28;20417;-72
2022/05/26 08:44:55;;;;;;;1.60;1.27;;;;;;;;;;4989747;28;20459;-72
2022/05/26 08:47:22;;;;;;;4.20;0.53;;;;;;;;;;4991729;28;20783;-72
2022/05/26 08:49:58;;;;;;;0.40;0.40;;;;;;;;;;4990816;28;20832;-72
2022/05/26 08:52:29;;;;;;;1.03;0.70;;;;;;;;;;4991246;28;20452;-72
2022/05/26 08:55:00;;;;;;;5.13;0.40;;;;;;;;;;4990258;28;20433;-72
2022/05/26 08:57:32;;;;;;;0.97;0.47;;;;;;;;;;4986621;28;20729;-72
2022/05/26 08:59:58;;;;;;;0.40;0.40;;;;;;;;;;4986084;28;20413;-72
2022/05/26 09:02:33;;;;;;;0.83;0.50;;;;;;;;;;4987366;28;20955;-72
2022/05/26 09:05:01;;;;;;;2.23;0.77;;;;;;;;;;4988669;28;20450;-72
2022/05/26 09:13:06;;;;;;;1.17;0.60;;;;;;;;;;4991458;28;20472;-72
2022/05/26 09:15:33;;;;;;;1.27;0.60;;;;;;;;;;4990978;28;20491;-71
2022/05/26 09:17:59;;;;;;;0.60;0.60;;;;;;;;;;4987634;28;20439;-72
2022/05/26 09:20:29;;;;;;;0.57;0.50;;;;;;;;;;4986700;28;20863;-72
2022/05/26 09:23:07;;;;;;;0.73;0.70;;;;;;;;;;4988394;28;20493;-71
2022/05/26 09:25:49;;;;;;;0.80;0.80;;;;;;;;;;4986355;28;20863;-71
2022/05/26 09:28:40;;;;;;;0.57;0.53;;;;;;;;;;4986226;28;20433;-72
2022/05/26 09:31:21;;;;;;;0.37;0.37;;;;;;;;;;4986938;28;20441;-72
2022/05/26 09:34:06;;;;;;;0.83;0.40;;;;;;;;;;4987486;28;20520;-72
2022/05/26 09:36:44;;;;;;;0.93;0.57;;;;;;;;;;4988389;28;20927;-72
2022/05/26 09:39:11;;;;;;;0.50;0.50;;;;;;;;;;4989962;28;20433;-72
2022/05/26 09:41:41;;;;;;;0.40;0.40;;;;;;;;;;4987514;28;20445;-72
2022/05/26 09:44:17;;;;;;;1.03;0.40;;;;;;;;;;4987404;28;20903;-72
2022/05/26 09:46:48;;;;;;;0.60;0.60;;;;;;;;;;4989057;28;20429;-75
2022/05/26 09:49:14;;;;;;;0.57;0.57;;;;;;;;;;4987713;28;20437;-75
2022/05/26 09:51:45;;;;;;;2.13;0.50;;;;;;;;;;4981743;28;20501;-77
2022/05/26 09:54:32;;;;;;;1.47;1.47;;;;;;;;;;4987718;28;20433;-74
2022/05/26 09:57:11;;;;;;;1.27;0.90;;;;;;;;;;4985438;28;20421;-76
2022/05/26 09:59:39;;;;;;;0.97;0.93;;;;;;;;;;4984219;28;20433;-75
2022/05/26 10:02:08;;;;;;;0.67;0.60;;;;;;;;;;4985465;28;20440;-75
2022/05/26 10:04:41;;;;;;;0.70;0.70;;;;;;;;;;4985128;28;20938;-75
2022/05/26 10:07:36;;;;;;;1.73;0.73;;;;;;;;;;5001095;28;20428;-75
2022/05/26 10:10:05;;;;;;;0.57;0.43;;;;;;;;;;4933647;28;20439;-74
2022/05/26 10:12:31;;;;;;;0.37;0.37;;;;;;;;;;4969604;28;20485;-73
2022/05/26 10:14:57;;;;;;;0.50;0.40;;;;;;;;;;4976079;28;20955;-73
2022/05/26 10:17:29;;;;;;;0.90;0.50;;;;;;;;;;4971654;28;20221;-74
2022/05/26 10:20:08;;;;;;;0.70;0.70;;;;;;;;;;4974073;28;20496;-76
2022/05/26 10:22:52;;;;;;;2.17;0.73;;;;;;;;;;5011119;28;21029;-75
2022/05/26 10:25:18;;;;;;;0.40;0.40;;;;;;;;;;4984860;28;20444;-74
2022/05/26 10:27:56;;;;;;;0.93;0.60;;;;;;;;;;4980002;28;20445;-75
2022/05/26 10:30:39;;;;;;;2.20;0.77;;;;;;;;;;4983581;28;20213;-74
2022/05/26 10:33:08;;;;;;;0.93;0.40;;;;;;;;;;4981426;28;20930;-74
2022/05/26 10:35:34;;;;;;;1.07;0.50;;;;;;;;;;4983526;28;20445;-75
2022/05/26 10:38:03;;;;;;;5.53;0.67;;;;;;;;;;4985603;28;20519;-75
2022/05/26 10:40:31;;;;;;;4.10;0.53;;;;;;;;;;4986591;28;20185;-72
2022/05/26 10:43:00;;;;;;;8.73;0.50;;;;;;;;;;4987833;28;20472;-75
2022/05/26 10:45:27;;;;;;;0.50;0.50;;;;;;;;;;4981374;28;20429;-71
2022/05/26 10:48:07;;;;;;;1.07;0.90;;;;;;;;;;4986736;28;20436;-74
2022/05/26 10:50:43;;;;;;;9.10;0.40;;;;;;;;;;4983603;28;20568;-75
2022/05/26 10:53:15;;;;;;;0.67;0.50;;;;;;;;;;4983555;28;20425;-75
2022/05/26 10:55:53;;;;;;;0.73;0.70;;;;;;;;;;4985413;28;20432;-73
2022/05/26 10:58:33;;;;;;;1.23;0.50;;;;;;;;;;4986693;28;20949;-73
2022/05/26 11:01:02;;;;;;;0.40;0.40;;;;;;;;;;4984847;28;20440;-74
2022/05/26 11:03:36;;;;;;;0.70;0.70;;;;;;;;;;4991016;28;20583;-74
2022/05/26 11:06:20;;;;;;;2.80;0.50;;;;;;;;;;4993110;28;20417;-73
2022/05/26 11:08:57;;;;;;;3.07;2.60;;;;;;;;;;4991084;28;20436;-73
2022/05/26 11:11:39;;;;;;;0.63;0.63;;;;;;;;;;4992317;28;20412;-74
2022/05/26 11:17:21;;;;;;;0.50;0.50;;;;;;;;;;4990702;28;20429;-74
2022/05/26 11:17:22;;;;;;;1.10;0.47;;;;;;;;;;4993223;28;20467;-74
2022/05/26 11:19:51;;;;;;;1.80;0.40;;;;;;;;;;4991121;28;20821;-74
2022/05/26 11:22:18;;;;;;;1.53;0.70;;;;;;;;;;4990933;28;20469;-74
2022/05/26 11:24:48;;;;;;;0.73;0.67;;;;;;;;;;4988788;28;20999;-74
2022/05/26 11:27:18;;;;;;;0.67;0.67;;;;;;;;;;4984654;28;20807;-74
2022/05/26 11:29:47;;;;;;;1.43;0.60;;;;;;;;;;4993003;28;20820;-74
2022/05/26 11:38:01;;;;;;;2.93;0.70;;;;;;;;;;4989039;28;20437;-74
2022/05/26 11:40:29;;;;;;;0.87;0.80;;;;;;;;;;4984922;28;21116;-74
2022/05/26 11:42:57;;;;;;;0.70;0.70;;;;;;;;;;4975437;28;20969;-74
2022/05/26 11:45:23;;;;;;;2.37;0.80;;;;;;;;;;4987525;28;20448;-73
2022/05/26 11:47:56;;;;;;;0.50;0.50;;;;;;;;;;4991623;28;20433;-73
2022/05/26 11:50:22;;;;;;;0.67;0.63;;;;;;;;;;4989322;28;21142;-67
2022/05/26 11:52:54;;;;;;;0.90;0.70;;;;;;;;;;4987750;28;20431;-67
2022/05/26 11:55:31;;;;;;;0.50;0.50;;;;;;;;;;4989466;28;20460;-68
2022/05/26 11:57:57;;;;;;;0.83;0.60;;;;;;;;;;4987301;28;20436;-68
2022/05/26 12:00:23;;;;;;;0.50;0.50;;;;;;;;;;4986589;28;20845;-68
2022/05/26 12:02:53;;;;;;;0.50;0.50;;;;;;;;;;4991313;28;20500;-67
2022/05/26 12:05:31;;;;;;;1.50;0.50;;;;;;;;;;4991239;28;20495;-67
2022/05/26 12:07:58;;;;;;;0.70;0.70;;;;;;;;;;4983551;28;20433;-74
2022/05/26 12:10:27;;;;;;;2.43;0.80;;;;;;;;;;4987979;28;20527;-75
2022/05/26 12:13:11;;;;;;;0.67;0.67;;;;;;;;;;4988196;28;21048;-74
2022/05/26 12:15:57;;;;;;;1.33;0.90;;;;;;;;;;4990380;28;20431;-73
2022/05/26 12:18:36;;;;;;;1.17;0.80;;;;;;;;;;4987717;28;20436;-75
2022/05/26 12:21:31;;;;;;;0.90;0.60;;;;;;;;;;4987486;28;20540;-75
2022/05/26 12:23:58;;;;;;;1.20;0.67;;;;;;;;;;4995347;28;20853;-76
2022/05/26 12:26:30;;;;;;;5.23;0.60;;;;;;;;;;4979716;28;20444;-75
2022/05/26 12:29:16;;;;;;;0.73;0.70;;;;;;;;;;4983688;28;20527;-73
2022/05/26 12:32:00;;;;;;;0.57;0.57;;;;;;;;;;4986986;28;20487;-74
2022/05/26 12:34:27;;;;;;;0.50;0.50;;;;;;;;;;4982345;28;20441;-74
2022/05/26 12:36:56;;;;;;;0.93;0.93;;;;;;;;;;4982737;28;20456;-74
2022/05/26 12:39:43;;;;;;;0.70;0.70;;;;;;;;;;4981118;28;20863;-74
2022/05/26 12:42:16;;;;;;;2.60;0.60;;;;;;;;;;4988760;28;20433;-75
2022/05/26 12:44:42;;;;;;;0.50;0.50;;;;;;;;;;4987719;28;20567;-75
2022/05/26 12:47:17;;;;;;;0.80;0.80;;;;;;;;;;4989410;28;20516;-73
2022/05/26 12:50:02;;;;;;;3.80;1.00;;;;;;;;;;4988172;28;20539;-75
2022/05/26 12:52:31;;;;;;;0.73;0.73;;;;;;;;;;4989492;28;20464;-75
2022/05/26 12:55:17;;;;;;;1.17;0.63;;;;;;;;;;4982017;28;21028;-74
2022/05/26 12:57:45;;;;;;;2.67;0.50;;;;;;;;;;4987445;28;20447;-75
2022/05/26 13:00:33;;;;;;;0.70;0.70;;;;;;;;;;4988606;28;20437;-74
2022/05/26 13:03:00;;;;;;;0.70;0.70;;;;;;;;;;4988615;28;20634;-74
2022/05/26 13:05:27;;;;;;;2.00;1.03;;;;;;;;;;4989988;28;20456;-75
2022/05/26 13:07:54;;;;;;;1.13;0.60;;;;;;;;;;4982567;28;20735;-74
2022/05/26 13:10:41;;;;;;;1.37;0.60;;;;;;;;;;4980358;28;21084;-75
2022/05/26 13:13:17;;;;;;;0.70;0.70;;;;;;;;;;4985646;28;20449;-73
2022/05/26 13:15:45;;;;;;;2.90;0.60;;;;;;;;;;4987530;28;20468;-75
2022/05/26 13:18:21;;;;;;;0.43;0.40;;;;;;;;;;4985129;28;20528;-75
2022/05/26 13:20:47;;;;;;;0.67;0.67;;;;;;;;;;4988217;28;20441;-73
2022/05/26 13:23:26;;;;;;;0.60;0.60;;;;;;;;;;4989714;28;20484;-74
2022/05/26 13:25:54;;;;;;;0.47;0.47;;;;;;;;;;4988275;28;20424;-75
2022/05/26 13:28:26;;;;;;;0.60;0.60;;;;;;;;;;4988173;28;20520;-76
2022/05/26 13:33:41;;;;;;;0.57;0.57;;;;;;;;;;4990662;28;20436;-74
2022/05/26 13:36:07;;;;;;;1.13;0.40;;;;;;;;;;4989147;28;20444;-73
2022/05/26 13:38:33;;;;;;;1.30;0.80;;;;;;;;;;4987799;28;20433;-74
2022/05/26 13:41:00;;;;;;;1.07;1.07;;;;;;;;;;4985533;28;20850;-73
2022/05/26 13:43:27;;;;;;;4.23;0.87;;;;;;;;;;4990014;28;20315;-76
2022/05/26 13:45:54;;;;;;;1.53;0.70;;;;;;;;;;4988648;28;20476;-75
2022/05/26 13:48:37;;;;;;;0.50;0.50;;;;;;;;;;4987952;28;20480;-75
2022/05/26 13:51:17;;;;;;;0.63;0.63;;;;;;;;;;4987885;28;20989;-74
2022/05/26 13:53:45;;;;;;;1.00;0.80;;;;;;;;;;4988181;28;20448;-75
2022/05/26 13:56:15;;;;;;;3.40;0.57;;;;;;;;;;4988994;28;20483;-74
2022/05/26 13:58:44;;;;;;;0.67;0.67;;;;;;;;;;4987572;28;20464;-74
2022/05/26 14:01:11;;;;;;;0.60;0.60;;;;;;;;;;4988262;28;20520;-73
2022/05/26 14:03:37;;;;;;;3.40;0.70;;;;;;;;;;4987146;28;20472;-74
2022/05/26 14:06:03;;;;;;;0.50;0.50;;;;;;;;;;4987123;28;20469;-74
2022/05/26 14:08:30;;;;;;;0.57;0.57;;;;;;;;;;4988646;28;20453;-74
2022/05/26 14:10:56;;;;;;;0.97;0.70;;;;;;;;;;4987888;28;20532;-75
2022/05/26 14:13:25;;;;;;;0.63;0.60;;;;;;;;;;4986613;28;20475;-74
2022/05/26 14:16:06;;;;;;;0.30;0.30;;;;;;;;;;4987344;28;20882;-73
2022/05/26 14:18:32;;;;;;;0.60;0.60;;;;;;;;;;5003589;28;20421;-74
2022/05/26 14:20:59;;;;;;;0.70;0.50;;;;;;;;;;4982611;28;20476;-74
2022/05/26 14:23:25;;;;;;;1.17;0.40;;;;;;;;;;4987059;28;20507;-75
2022/05/26 14:26:20;;;;;;;0.60;0.60;;;;;;;;;;4987770;28;20512;-76
2022/05/26 14:28:46;;;;;;;0.63;0.50;;;;;;;;;;4984316;28;20965;-75
2022/05/26 14:31:23;;;;;;;0.50;0.50;;;;;;;;;;4984382;28;20464;-75
2022/05/26 14:34:15;;;;;;;1.43;0.87;;;;;;;;;;4988942;28;20504;-75
2022/05/26 14:36:41;;;;;;;1.17;0.60;;;;;;;;;;4989060;28;20441;-74
2022/05/26 14:39:07;;;;;;;1.50;0.60;;;;;;;;;;4989122;28;20528;-74
2022/05/26 14:41:33;;;;;;;0.60;0.60;;;;;;;;;;4989379;28;20440;-75
2022/05/26 14:44:02;;;;;;;0.83;0.70;;;;;;;;;;4989194;28;20497;-75
2022/05/26 14:46:28;;;;;;;0.60;0.60;;;;;;;;;;4989896;28;20452;-75
2022/05/26 14:48:56;;;;;;;0.77;0.77;;;;;;;;;;4989847;28;20909;-74
2022/05/26 14:51:24;;;;;;;0.50;0.50;;;;;;;;;;4989717;28;20493;-73
2022/05/26 14:56:35;;;;;;;0.70;0.40;;;;;;;;;;4987619;28;20997;-74
2022/05/26 14:59:01;;;;;;;0.80;0.70;;;;;;;;;;4987562;28;20512;-74
2022/05/26 15:01:26;;;;;;;0.63;0.63;;;;;;;;;;4989825;28;20952;-74
2022/05/26 15:03:52;;;;;;;1.90;0.70;;;;;;;;;;4983302;28;21012;-74
2022/05/26 15:06:18;;;;;;;1.73;0.40;;;;;;;;;;4988062;28;20783;-75
2022/05/26 15:08:45;;;;;;;1.93;1.83;;;;;;;;;;4989592;28;20436;-75
2022/05/26 15:11:12;;;;;;;0.90;0.40;;;;;;;;;;4986822;28;20429;-74
2022/05/26 15:13:38;;;;;;;1.50;0.57;;;;;;;;;;4989244;28;20425;-75
2022/05/26 15:16:05;;;;;;;2.30;0.70;;;;;;;;;;4989735;28;20428;-75
2022/05/26 15:18:31;;;;;;;0.70;0.70;;;;;;;;;;4986254;28;20445;-75
2022/05/26 15:20:57;;;;;;;0.83;0.83;;;;;;;;;;4987502;28;20447;-75
2022/05/26 15:23:23;;;;;;;0.77;0.77;;;;;;;;;;4988639;28;20484;-75
2022/05/26 15:28:51;;;;;;;0.60;0.60;;;;;;;;;;4986914;28;20432;-75
2022/05/26 15:31:18;;;;;;;0.90;0.40;;;;;;;;;;4987386;28;20452;-74
2022/05/26 15:33:44;;;;;;;0.70;0.70;;;;;;;;;;4989325;28;20508;-74
2022/05/26 15:36:10;;;;;;;0.60;0.60;;;;;;;;;;4988168;28;20439;-74
2022/05/26 15:38:39;;;;;;;0.70;0.70;;;;;;;;;;4988132;28;20429;-74
2022/05/26 15:41:06;;;;;;;2.00;0.60;;;;;;;;;;4987429;28;20861;-75
2022/05/26 15:43:33;;;;;;;2.70;0.87;;;;;;;;;;4989735;28;20575;-75
2022/05/26 15:46:00;;;;;;;0.50;0.50;;;;;;;;;;4991748;28;20504;-74
2022/05/26 15:48:26;;;;;;;0.50;0.50;;;;;;;;;;4990772;28;20439;-75